Time;durP1;ratioP1;P1;durP2;ratioP2;P2;SDS_P1;SDS_P2;PMS_P1;PMS_P2;Temp;Humidity;BMP_temperature;BMP_pressure;BME280_temperature;BME280_humidity;BME280_pressure;Samples;Min_cycle;Max_cycle;Signal;HPM_P1;HPM_P2
2023/10/13 00:00:25;;;;;;;9.30;5.83;;;;;;;;;;513986;28;1315;-78
2023/10/13 00:00:37;;;;;;;8.05;5.53;;;;;;;;;;512447;28;1078;-78
2023/10/13 00:00:57;;;;;;;7.35;5.30;;;;;;;;;;512880;28;1863;-78
2023/10/13 00:01:13;;;;;;;8.18;5.55;;;;;;;;;;514225;28;2027;-78
2023/10/13 00:01:29;;;;;;;9.45;5.38;;;;;;;;;;518082;28;878;-78
2023/10/13 00:01:46;;;;;;;9.68;5.47;;;;;;;;;;517670;28;1301;-78
2023/10/13 00:02:04;;;;;;;8.75;5.90;;;;;;;;;;517906;28;855;-78
2023/10/13 00:02:22;;;;;;;8.70;5.63;;;;;;;;;;518009;28;1239;-78
2023/10/13 00:02:39;;;;;;;9.75;5.35;;;;;;;;;;516077;28;1416;-78
2023/10/13 00:02:54;;;;;;;8.88;5.32;;;;;;;;;;515906;28;1255;-77
2023/10/13 00:03:15;;;;;;;7.87;5.50;;;;;;;;;;515988;28;1282;-78
2023/10/13 00:03:31;;;;;;;9.95;5.70;;;;;;;;;;515930;28;1516;-78
2023/10/13 00:03:46;;;;;;;9.38;5.57;;;;;;;;;;516765;28;1341;-78
2023/10/13 00:04:05;;;;;;;9.27;5.47;;;;;;;;;;515931;28;1294;-78
2023/10/13 00:04:24;;;;;;;11.23;5.60;;;;;;;;;;516109;28;1017;-78
2023/10/13 00:04:40;;;;;;;8.77;5.53;;;;;;;;;;515462;28;1375;-78
2023/10/13 00:04:56;;;;;;;7.70;5.37;;;;;;;;;;513940;28;1316;-78
2023/10/13 00:05:12;;;;;;;8.80;5.20;;;;;;;;;;512054;29;918;-77
2023/10/13 00:05:30;;;;;;;10.10;5.45;;;;;;;;;;511948;29;1328;-78
2023/10/13 00:05:46;;;;;;;9.63;5.88;;;;;;;;;;513775;28;1141;-78
2023/10/13 00:06:03;;;;;;;8.75;5.80;;;;;;;;;;515190;28;886;-78
2023/10/13 00:06:18;;;;;;;8.60;5.63;;;;;;;;;;516012;28;910;-78
2023/10/13 00:06:33;;;;;;;9.00;5.55;;;;;;;;;;516076;28;1199;-78
2023/10/13 00:06:49;;;;;;;9.13;5.40;;;;;;;;;;516840;28;1090;-78
2023/10/13 00:07:08;;;;;;;8.05;5.00;;;;;;;;;;517850;28;1330;-78
2023/10/13 00:07:23;;;;;;;7.20;4.88;;;;;;;;;;518005;28;866;-77
2023/10/13 00:07:39;;;;;;;7.93;5.17;;;;;;;;;;516231;28;1200;-78
2023/10/13 00:07:54;;;;;;;8.10;5.30;;;;;;;;;;515724;28;1383;-78
2023/10/13 00:08:10;;;;;;;7.13;5.38;;;;;;;;;;515978;28;1426;-78
2023/10/13 00:08:25;;;;;;;7.65;5.22;;;;;;;;;;516039;28;1025;-78
2023/10/13 00:08:41;;;;;;;8.00;5.10;;;;;;;;;;513389;28;1215;-78
2023/10/13 00:08:57;;;;;;;8.32;5.30;;;;;;;;;;512123;29;855;-78
2023/10/13 00:09:14;;;;;;;9.27;5.37;;;;;;;;;;511918;29;1501;-78
2023/10/13 00:09:33;;;;;;;10.50;5.68;;;;;;;;;;512525;28;1316;-78
2023/10/13 00:09:48;;;;;;;10.55;5.80;;;;;;;;;;514811;28;1250;-78
2023/10/13 00:10:14;;;;;;;10.55;5.70;;;;;;;;;;516010;28;1033;-78
2023/10/13 00:10:30;;;;;;;9.68;5.82;;;;;;;;;;515151;28;1976;-78
2023/10/13 00:10:47;;;;;;;8.52;5.50;;;;;;;;;;512871;28;1380;-78
2023/10/13 00:11:04;;;;;;;9.00;5.30;;;;;;;;;;513478;28;902;-78
2023/10/13 00:11:21;;;;;;;8.90;5.22;;;;;;;;;;514469;28;858;-78
2023/10/13 00:11:40;;;;;;;6.65;4.90;;;;;;;;;;515922;28;1482;-78
2023/10/13 00:11:56;;;;;;;8.32;5.13;;;;;;;;;;513958;28;1963;-79
2023/10/13 00:12:14;;;;;;;7.97;5.20;;;;;;;;;;511778;29;1164;-78
2023/10/13 00:12:31;;;;;;;7.38;5.22;;;;;;;;;;512005;29;1396;-78
2023/10/13 00:12:49;;;;;;;9.43;5.85;;;;;;;;;;513787;28;1289;-78
2023/10/13 00:13:15;;;;;;;;;;;;;;;;;;;;;
2023/10/13 00:13:34;;;;;;;8.95;5.68;;;;;;;;;;513227;28;1080;-78
2023/10/13 00:13:52;;;;;;;9.82;5.90;;;;;;;;;;513291;28;1070;-78
2023/10/13 00:14:09;;;;;;;10.05;5.68;;;;;;;;;;514527;28;1499;-78
2023/10/13 00:14:33;;;;;;;9.60;5.63;;;;;;;;;;515498;28;1654;-78
2023/10/13 00:14:50;;;;;;;8.68;5.30;;;;;;;;;;517141;28;1006;-78
2023/10/13 00:15:13;;;;;;;9.35;5.60;;;;;;;;;;514979;28;1295;-77
2023/10/13 00:15:28;;;;;;;8.77;5.38;;;;;;;;;;514928;28;907;-78
2023/10/13 00:15:58;;;;;;;;;;;;;;;;;;;;;
2023/10/13 00:16:17;;;;;;;8.80;5.63;;;;;;;;;;513310;28;1085;-78
2023/10/13 00:16:34;;;;;;;8.45;5.32;;;;;;;;;;513608;28;2136;-78
2023/10/13 00:17:04;;;;;;;7.75;4.90;;;;;;;;;;513714;28;1694;-78
2023/10/13 00:17:20;;;;;;;9.60;5.60;;;;;;;;;;515945;28;886;-78
2023/10/13 00:17:38;;;;;;;8.27;5.63;;;;;;;;;;514571;28;1370;-78
2023/10/13 00:17:55;;;;;;;8.00;5.80;;;;;;;;;;515576;28;1664;-78
2023/10/13 00:18:13;;;;;;;8.70;5.60;;;;;;;;;;513682;28;1414;-78
2023/10/13 00:18:34;;;;;;;8.20;5.28;;;;;;;;;;512838;28;1394;-78
2023/10/13 00:18:54;;;;;;;10.07;5.50;;;;;;;;;;511685;28;1339;-78
2023/10/13 00:19:13;;;;;;;10.05;5.10;;;;;;;;;;511461;29;862;-78
2023/10/13 00:19:46;;;;;;;8.95;5.10;;;;;;;;;;512233;28;1781;-77
2023/10/13 00:20:11;;;;;;;9.65;5.50;;;;;;;;;;514368;28;1208;-78
2023/10/13 00:20:35;;;;;;;9.93;5.70;;;;;;;;;;515409;28;970;-78
2023/10/13 00:20:51;;;;;;;8.77;5.57;;;;;;;;;;513149;28;1583;-78
2023/10/13 00:21:42;;;;;;;7.03;4.85;;;;;;;;;;513987;28;1047;-78
2023/10/13 00:22:08;;;;;;;8.05;5.22;;;;;;;;;;516018;28;870;-78
2023/10/13 00:22:24;;;;;;;10.45;5.60;;;;;;;;;;517478;28;914;-78
2023/10/13 00:22:40;;;;;;;10.75;5.80;;;;;;;;;;517689;28;1113;-78
2023/10/13 00:22:57;;;;;;;8.90;5.43;;;;;;;;;;518130;28;973;-78
2023/10/13 00:23:12;;;;;;;7.93;5.38;;;;;;;;;;518065;28;918;-78
2023/10/13 00:23:27;;;;;;;8.10;5.37;;;;;;;;;;516234;28;2246;-79
2023/10/13 00:23:53;;;;;;;8.02;5.30;;;;;;;;;;517612;28;1369;-78
2023/10/13 00:24:12;;;;;;;8.63;5.57;;;;;;;;;;515907;28;1499;-78
2023/10/13 00:24:29;;;;;;;8.85;5.38;;;;;;;;;;515907;28;1289;-78
2023/10/13 00:24:46;;;;;;;9.32;5.20;;;;;;;;;;516561;28;1259;-78
2023/10/13 00:25:03;;;;;;;7.95;5.10;;;;;;;;;;515947;28;1342;-79
2023/10/13 00:25:26;;;;;;;7.15;5.28;;;;;;;;;;515758;28;1224;-77
2023/10/13 00:25:49;;;;;;;9.38;5.57;;;;;;;;;;515891;28;1073;-82
2023/10/13 00:26:09;;;;;;;7.20;5.18;;;;;;;;;;516428;28;1436;-82
2023/10/13 00:26:29;;;;;;;7.28;5.47;;;;;;;;;;517692;28;1450;-82
2023/10/13 00:26:45;;;;;;;7.97;5.28;;;;;;;;;;517693;28;1053;-82
2023/10/13 00:27:04;;;;;;;9.37;5.70;;;;;;;;;;519762;28;863;-82
2023/10/13 00:27:29;;;;;;;8.48;5.50;;;;;;;;;;518074;28;929;-78
2023/10/13 00:27:47;;;;;;;9.48;5.50;;;;;;;;;;515667;28;1406;-78
2023/10/13 00:28:03;;;;;;;9.05;5.30;;;;;;;;;;516000;28;887;-78
2023/10/13 00:28:23;;;;;;;9.07;5.50;;;;;;;;;;517059;28;1486;-78
2023/10/13 00:28:46;;;;;;;8.63;5.63;;;;;;;;;;517723;28;1129;-78
2023/10/13 00:29:30;;;;;;;10.27;5.55;;;;;;;;;;517675;28;756;-78
2023/10/13 00:29:46;;;;;;;9.13;5.40;;;;;;;;;;519785;28;1081;-78
2023/10/13 00:30:22;;;;;;;7.30;5.30;;;;;;;;;;520007;28;925;-78
2023/10/13 00:30:37;;;;;;;10.15;5.55;;;;;;;;;;515908;28;1347;-78
2023/10/13 00:31:01;;;;;;;8.60;5.70;;;;;;;;;;517615;28;1097;-78
2023/10/13 00:31:17;;;;;;;7.85;5.70;;;;;;;;;;516037;28;1311;-79
2023/10/13 00:31:36;;;;;;;8.95;5.55;;;;;;;;;;513946;28;1283;-78
2023/10/13 00:31:52;;;;;;;10.85;5.50;;;;;;;;;;513670;28;1895;-78
2023/10/13 00:32:11;;;;;;;9.73;5.35;;;;;;;;;;514873;28;1714;-77
2023/10/13 00:32:27;;;;;;;8.30;5.40;;;;;;;;;;515982;28;1095;-78
2023/10/13 00:32:52;;;;;;;7.63;5.40;;;;;;;;;;515825;28;1101;-78
2023/10/13 00:33:09;;;;;;;8.68;5.55;;;;;;;;;;516503;28;961;-79
2023/10/13 00:33:25;;;;;;;8.50;5.25;;;;;;;;;;517966;28;910;-79
2023/10/13 00:33:41;;;;;;;7.35;4.95;;;;;;;;;;519874;28;1318;-78
2023/10/13 00:34:01;;;;;;;8.18;5.30;;;;;;;;;;517770;28;1460;-78
2023/10/13 00:34:25;;;;;;;8.32;5.30;;;;;;;;;;517636;28;909;-78
2023/10/13 00:34:40;;;;;;;7.82;5.03;;;;;;;;;;517610;28;1261;-78
2023/10/13 00:34:57;;;;;;;7.40;4.73;;;;;;;;;;518012;28;1048;-78
2023/10/13 00:35:24;;;;;;;9.25;5.32;;;;;;;;;;517798;28;929;-78
2023/10/13 00:35:42;;;;;;;9.07;5.50;;;;;;;;;;517544;28;963;-78
2023/10/13 00:35:58;;;;;;;8.60;5.22;;;;;;;;;;519421;28;913;-79
2023/10/13 00:36:19;;;;;;;8.70;5.10;;;;;;;;;;519843;28;870;-78
2023/10/13 00:36:35;;;;;;;7.90;5.10;;;;;;;;;;519813;28;1378;-78
2023/10/13 00:37:28;;;;;;;8.63;5.70;;;;;;;;;;519985;28;684;-78
2023/10/13 00:37:44;;;;;;;10.15;5.80;;;;;;;;;;519879;28;1128;-78
2023/10/13 00:38:04;;;;;;;9.18;5.95;;;;;;;;;;519992;28;834;-78
2023/10/13 00:38:19;;;;;;;9.40;5.68;;;;;;;;;;519785;28;925;-78
2023/10/13 00:38:35;;;;;;;11.63;5.90;;;;;;;;;;518135;28;890;-78
2023/10/13 00:38:52;;;;;;;10.70;5.73;;;;;;;;;;519731;28;1251;-78
2023/10/13 00:39:07;;;;;;;9.98;5.47;;;;;;;;;;519288;28;1843;-78
2023/10/13 00:39:23;;;;;;;8.90;5.43;;;;;;;;;;519738;28;819;-78
2023/10/13 00:39:44;;;;;;;7.85;5.45;;;;;;;;;;517790;28;1526;-78
2023/10/13 00:40:00;;;;;;;9.60;5.68;;;;;;;;;;517975;28;953;-78
2023/10/13 00:40:53;;;;;;;9.82;5.80;;;;;;;;;;516058;28;1050;-78
2023/10/13 00:41:16;;;;;;;8.40;5.80;;;;;;;;;;515873;28;862;-78
2023/10/13 00:42:17;;;;;;;8.25;5.50;;;;;;;;;;518408;28;1008;-78
2023/10/13 00:42:50;;;;;;;9.57;5.53;;;;;;;;;;519936;28;901;-78
2023/10/13 00:44:03;;;;;;;8.57;5.40;;;;;;;;;;517981;28;938;-78
2023/10/13 00:44:28;;;;;;;8.63;5.55;;;;;;;;;;518186;28;688;-78
2023/10/13 00:44:48;;;;;;;8.30;5.70;;;;;;;;;;519775;28;1264;-78
2023/10/13 00:45:04;;;;;;;8.43;5.20;;;;;;;;;;519906;28;866;-78
2023/10/13 00:45:20;;;;;;;8.37;5.27;;;;;;;;;;519928;28;1299;-78
2023/10/13 00:45:35;;;;;;;8.38;5.45;;;;;;;;;;518565;28;1752;-78
2023/10/13 00:45:56;;;;;;;8.40;5.13;;;;;;;;;;518320;28;1208;-78
2023/10/13 00:46:13;;;;;;;8.90;5.20;;;;;;;;;;517900;28;906;-78
2023/10/13 00:46:33;;;;;;;8.27;5.30;;;;;;;;;;517855;28;1239;-78
2023/10/13 00:46:54;;;;;;;8.48;5.30;;;;;;;;;;517785;28;970;-78
2023/10/13 00:47:16;;;;;;;8.68;5.05;;;;;;;;;;515923;28;1234;-78
2023/10/13 00:47:49;;;;;;;8.63;5.15;;;;;;;;;;517264;28;973;-78
2023/10/13 00:48:10;;;;;;;7.90;5.15;;;;;;;;;;517984;28;874;-78
2023/10/13 00:48:33;;;;;;;9.50;5.15;;;;;;;;;;518021;28;898;-78
2023/10/13 00:48:52;;;;;;;9.48;5.57;;;;;;;;;;517918;28;1073;-78
2023/10/13 00:49:09;;;;;;;8.15;5.25;;;;;;;;;;517353;28;874;-78
2023/10/13 00:49:24;;;;;;;7.57;5.22;;;;;;;;;;517096;28;1902;-78
2023/10/13 00:49:39;;;;;;;9.67;5.60;;;;;;;;;;517107;28;1288;-78
2023/10/13 00:49:56;;;;;;;9.82;5.63;;;;;;;;;;515012;28;1210;-79
2023/10/13 00:50:14;;;;;;;7.90;5.43;;;;;;;;;;517958;28;1377;-78
2023/10/13 00:50:30;;;;;;;8.00;5.32;;;;;;;;;;517948;28;1040;-78
2023/10/13 00:50:47;;;;;;;8.07;5.30;;;;;;;;;;517804;28;1085;-78
2023/10/13 00:51:07;;;;;;;9.43;5.57;;;;;;;;;;518574;28;902;-78
2023/10/13 00:51:35;;;;;;;8.50;5.22;;;;;;;;;;517816;28;1060;-78
2023/10/13 00:51:50;;;;;;;7.40;5.47;;;;;;;;;;517447;28;1962;-78
2023/10/13 00:52:10;;;;;;;8.50;5.40;;;;;;;;;;515813;28;1217;-78
2023/10/13 00:52:25;;;;;;;8.38;5.18;;;;;;;;;;515768;28;1366;-78
2023/10/13 00:52:44;;;;;;;6.80;5.20;;;;;;;;;;515767;28;1074;-78
2023/10/13 00:53:02;;;;;;;8.85;5.28;;;;;;;;;;513817;28;1400;-78
2023/10/13 00:53:21;;;;;;;9.88;5.53;;;;;;;;;;514976;28;1414;-78
2023/10/13 00:53:40;;;;;;;9.38;5.40;;;;;;;;;;515894;28;831;-78
2023/10/13 00:53:56;;;;;;;9.13;5.25;;;;;;;;;;516255;28;992;-78
2023/10/13 00:54:12;;;;;;;10.48;5.55;;;;;;;;;;517823;28;877;-78
2023/10/13 00:54:27;;;;;;;8.60;5.32;;;;;;;;;;517888;28;1237;-78
2023/10/13 00:54:46;;;;;;;6.70;4.93;;;;;;;;;;517639;28;970;-78
2023/10/13 00:55:02;;;;;;;8.35;5.53;;;;;;;;;;517790;28;886;-77
2023/10/13 00:55:22;;;;;;;9.25;5.80;;;;;;;;;;519652;28;1252;-78
2023/10/13 00:55:41;;;;;;;9.95;5.85;;;;;;;;;;519698;28;866;-78
2023/10/13 00:55:56;;;;;;;9.18;5.80;;;;;;;;;;519100;28;1294;-78
2023/10/13 00:56:27;;;;;;;8.60;5.47;;;;;;;;;;519721;28;1168;-78
2023/10/13 00:57:03;;;;;;;8.55;5.65;;;;;;;;;;519439;28;1049;-78
2023/10/13 00:57:29;;;;;;;8.43;5.47;;;;;;;;;;519680;28;961;-77
2023/10/13 00:57:47;;;;;;;7.72;5.13;;;;;;;;;;517693;28;1334;-78
2023/10/13 00:58:03;;;;;;;7.35;4.90;;;;;;;;;;516066;28;1860;-77
2023/10/13 00:58:22;;;;;;;7.18;5.25;;;;;;;;;;517656;28;1302;-77
2023/10/13 00:58:40;;;;;;;7.45;5.47;;;;;;;;;;515740;28;1376;-77
2023/10/13 00:58:57;;;;;;;8.02;5.40;;;;;;;;;;515699;28;1542;-78
2023/10/13 00:59:15;;;;;;;8.13;5.15;;;;;;;;;;515883;28;894;-78
2023/10/13 00:59:34;;;;;;;7.82;5.30;;;;;;;;;;515941;28;978;-78
2023/10/13 00:59:51;;;;;;;7.97;5.20;;;;;;;;;;516068;28;1085;-78
2023/10/13 01:00:19;;;;;;;7.85;5.20;;;;;;;;;;517822;28;933;-77
2023/10/13 01:00:46;;;;;;;6.10;4.77;;;;;;;;;;517885;28;902;-78
2023/10/13 01:01:17;;;;;;;7.00;5.00;;;;;;;;;;519348;28;906;-78
2023/10/13 01:01:34;;;;;;;8.65;5.20;;;;;;;;;;520061;28;897;-78
2023/10/13 01:01:55;;;;;;;9.00;5.20;;;;;;;;;;517808;28;1265;-77
2023/10/13 01:02:37;;;;;;;8.98;5.45;;;;;;;;;;515695;28;1390;-78
2023/10/13 01:02:56;;;;;;;9.45;5.78;;;;;;;;;;515775;28;1208;-78
2023/10/13 01:03:12;;;;;;;10.10;5.60;;;;;;;;;;515999;28;990;-78
2023/10/13 01:03:27;;;;;;;9.18;5.25;;;;;;;;;;515823;28;1381;-78
2023/10/13 01:03:55;;;;;;;8.57;5.10;;;;;;;;;;514568;28;1062;-78
2023/10/13 01:04:14;;;;;;;8.77;5.32;;;;;;;;;;515800;28;936;-78
2023/10/13 01:04:31;;;;;;;8.73;5.43;;;;;;;;;;515514;28;1536;-78
2023/10/13 01:04:47;;;;;;;9.35;5.20;;;;;;;;;;515910;28;1288;-78
2023/10/13 01:05:09;;;;;;;9.30;5.30;;;;;;;;;;514733;28;1877;-78
2023/10/13 01:05:26;;;;;;;8.27;5.28;;;;;;;;;;517326;28;970;-78
2023/10/13 01:05:42;;;;;;;8.73;5.10;;;;;;;;;;519457;28;994;-78
2023/10/13 01:05:58;;;;;;;9.25;5.00;;;;;;;;;;519327;28;1407;-78
2023/10/13 01:06:18;;;;;;;7.85;5.05;;;;;;;;;;519792;28;878;-78
2023/10/13 01:06:33;;;;;;;7.22;5.10;;;;;;;;;;519737;28;1407;-78
2023/10/13 01:06:51;;;;;;;7.53;5.30;;;;;;;;;;519700;28;1261;-78
2023/10/13 01:07:07;;;;;;;7.90;5.38;;;;;;;;;;519885;28;977;-78
2023/10/13 01:07:24;;;;;;;9.63;5.32;;;;;;;;;;518157;28;1020;-78
2023/10/13 01:07:39;;;;;;;8.38;5.18;;;;;;;;;;519988;28;1242;-78
2023/10/13 01:07:56;;;;;;;8.47;5.23;;;;;;;;;;519655;28;1391;-78
2023/10/13 01:08:12;;;;;;;9.98;5.68;;;;;;;;;;519802;28;1322;-78
2023/10/13 01:08:37;;;;;;;8.98;5.65;;;;;;;;;;517133;28;1781;-78
2023/10/13 01:09:16;;;;;;;7.18;5.13;;;;;;;;;;514642;28;1580;-78
2023/10/13 01:09:42;;;;;;;8.20;5.43;;;;;;;;;;513800;28;895;-78
2023/10/13 01:09:57;;;;;;;9.13;5.22;;;;;;;;;;515986;28;934;-78
2023/10/13 01:10:14;;;;;;;9.07;5.50;;;;;;;;;;515718;28;1295;-78
2023/10/13 01:10:32;;;;;;;9.70;5.70;;;;;;;;;;515643;28;1239;-78
2023/10/13 01:10:49;;;;;;;8.77;5.32;;;;;;;;;;513099;28;1882;-78
2023/10/13 01:11:08;;;;;;;8.82;5.20;;;;;;;;;;509648;29;859;-78
2023/10/13 01:11:23;;;;;;;9.93;5.35;;;;;;;;;;509806;29;1492;-78
2023/10/13 01:11:42;;;;;;;9.27;5.40;;;;;;;;;;509609;29;1157;-78
2023/10/13 01:12:00;;;;;;;7.97;5.40;;;;;;;;;;507936;29;1971;-78
2023/10/13 01:12:16;;;;;;;9.52;5.45;;;;;;;;;;507866;29;1235;-78
2023/10/13 01:12:31;;;;;;;9.37;5.40;;;;;;;;;;509791;29;1180;-78
2023/10/13 01:12:47;;;;;;;8.13;5.20;;;;;;;;;;511438;28;997;-78
2023/10/13 01:13:02;;;;;;;8.52;5.38;;;;;;;;;;511829;29;1273;-77
2023/10/13 01:13:18;;;;;;;8.27;5.45;;;;;;;;;;512805;28;941;-78
2023/10/13 01:13:36;;;;;;;9.20;5.20;;;;;;;;;;513542;28;995;-77
2023/10/13 01:13:53;;;;;;;9.10;5.00;;;;;;;;;;513311;28;1253;-78
2023/10/13 01:14:11;;;;;;;10.18;5.20;;;;;;;;;;514525;28;1308;-78
2023/10/13 01:14:28;;;;;;;9.05;5.18;;;;;;;;;;516857;28;898;-78
2023/10/13 01:14:45;;;;;;;8.60;5.43;;;;;;;;;;517508;28;1453;-78
2023/10/13 01:15:08;;;;;;;6.95;5.22;;;;;;;;;;519715;28;863;-78
2023/10/13 01:15:29;;;;;;;6.18;4.63;;;;;;;;;;520053;28;871;-78
2023/10/13 01:15:46;;;;;;;8.18;5.13;;;;;;;;;;518492;28;1843;-77
2023/10/13 01:16:07;;;;;;;9.95;5.30;;;;;;;;;;519328;28;858;-78
2023/10/13 01:16:26;;;;;;;11.18;5.32;;;;;;;;;;518553;28;2266;-78
2023/10/13 01:16:44;;;;;;;8.55;5.30;;;;;;;;;;518540;28;908;-78
2023/10/13 01:17:01;;;;;;;8.25;5.35;;;;;;;;;;517727;28;882;-78
2023/10/13 01:17:17;;;;;;;8.27;5.03;;;;;;;;;;515766;28;1247;-78
2023/10/13 01:17:33;;;;;;;8.50;5.05;;;;;;;;;;515694;28;1275;-78
2023/10/13 01:17:49;;;;;;;9.30;5.20;;;;;;;;;;515676;28;1223;-77
2023/10/13 01:18:12;;;;;;;9.93;5.15;;;;;;;;;;513298;28;1158;-78
2023/10/13 01:18:28;;;;;;;9.77;4.97;;;;;;;;;;511854;29;888;-78
2023/10/13 01:18:49;;;;;;;9.90;5.32;;;;;;;;;;513146;28;1332;-77
2023/10/13 01:19:05;;;;;;;8.23;5.22;;;;;;;;;;517722;28;1406;-78
2023/10/13 01:19:24;;;;;;;8.15;5.20;;;;;;;;;;517830;28;1033;-78
2023/10/13 01:19:42;;;;;;;9.63;5.38;;;;;;;;;;517158;28;1109;-78
2023/10/13 01:19:58;;;;;;;9.05;5.22;;;;;;;;;;516990;28;922;-77
2023/10/13 01:20:24;;;;;;;8.07;5.00;;;;;;;;;;519344;28;1613;-78
2023/10/13 01:20:45;;;;;;;11.13;5.03;;;;;;;;;;519679;28;1798;-77
2023/10/13 01:21:04;;;;;;;9.95;5.22;;;;;;;;;;519241;28;1279;-78
2023/10/13 01:21:20;;;;;;;9.02;5.38;;;;;;;;;;519937;28;1241;-78
2023/10/13 01:21:35;;;;;;;9.65;5.53;;;;;;;;;;517936;28;1305;-78
2023/10/13 01:22:04;;;;;;;8.30;5.20;;;;;;;;;;517738;28;1228;-77
2023/10/13 01:22:21;;;;;;;7.03;5.15;;;;;;;;;;517846;28;906;-78
2023/10/13 01:22:36;;;;;;;7.63;4.97;;;;;;;;;;514588;28;1857;-78
2023/10/13 01:22:55;;;;;;;8.97;5.20;;;;;;;;;;515729;28;1248;-78
2023/10/13 01:23:18;;;;;;;7.60;5.28;;;;;;;;;;513824;28;888;-77
2023/10/13 01:23:38;;;;;;;7.82;5.10;;;;;;;;;;514622;28;946;-78
2023/10/13 01:23:53;;;;;;;8.43;5.10;;;;;;;;;;517661;28;1396;-78
2023/10/13 01:24:10;;;;;;;6.40;4.90;;;;;;;;;;517769;28;1168;-78
2023/10/13 01:24:31;;;;;;;7.95;5.30;;;;;;;;;;518273;28;918;-78
2023/10/13 01:24:46;;;;;;;9.15;5.50;;;;;;;;;;519763;28;1053;-78
2023/10/13 01:25:13;;;;;;;8.67;5.27;;;;;;;;;;519886;28;1346;-78
2023/10/13 01:25:28;;;;;;;7.75;5.22;;;;;;;;;;517633;28;1311;-78
2023/10/13 01:25:45;;;;;;;7.67;5.17;;;;;;;;;;517799;28;1196;-78
2023/10/13 01:26:04;;;;;;;8.13;5.00;;;;;;;;;;519125;28;1389;-78
2023/10/13 01:26:26;;;;;;;8.63;5.15;;;;;;;;;;515715;28;942;-78
2023/10/13 01:26:42;;;;;;;8.02;5.03;;;;;;;;;;516306;28;1267;-78
2023/10/13 01:27:07;;;;;;;8.63;5.40;;;;;;;;;;519844;28;1294;-78
2023/10/13 01:27:25;;;;;;;9.13;5.40;;;;;;;;;;518919;28;1636;-78
2023/10/13 01:27:40;;;;;;;8.50;5.32;;;;;;;;;;518243;28;1686;-78
2023/10/13 01:27:56;;;;;;;7.70;5.30;;;;;;;;;;519892;28;1442;-78
2023/10/13 01:28:18;;;;;;;8.45;5.18;;;;;;;;;;517893;28;1334;-78
2023/10/13 01:28:44;;;;;;;7.57;5.45;;;;;;;;;;515789;28;1506;-78
2023/10/13 01:28:59;;;;;;;7.82;5.30;;;;;;;;;;513858;28;890;-78
2023/10/13 01:29:14;;;;;;;7.68;5.10;;;;;;;;;;513727;28;1668;-78
2023/10/13 01:29:30;;;;;;;7.90;5.10;;;;;;;;;;515717;28;1410;-78
2023/10/13 01:29:52;;;;;;;7.90;5.13;;;;;;;;;;515767;28;1279;-78
2023/10/13 01:30:22;;;;;;;8.40;5.38;;;;;;;;;;517126;28;937;-78
2023/10/13 01:30:38;;;;;;;8.07;5.43;;;;;;;;;;515589;28;1414;-78
2023/10/13 01:30:54;;;;;;;8.05;5.32;;;;;;;;;;515156;28;961;-78
2023/10/13 01:31:13;;;;;;;7.27;5.00;;;;;;;;;;513370;28;1200;-78
2023/10/13 01:31:29;;;;;;;7.82;5.00;;;;;;;;;;514892;28;880;-78
2023/10/13 01:31:46;;;;;;;8.68;5.00;;;;;;;;;;515722;28;1077;-78
2023/10/13 01:32:02;;;;;;;8.77;5.03;;;;;;;;;;515704;28;1643;-78
2023/10/13 01:32:23;;;;;;;8.73;5.40;;;;;;;;;;515655;28;1406;-78
2023/10/13 01:32:45;;;;;;;8.90;5.60;;;;;;;;;;517547;28;915;-78
2023/10/13 01:33:00;;;;;;;9.02;5.40;;;;;;;;;;515689;28;1290;-78
2023/10/13 01:33:17;;;;;;;9.67;5.20;;;;;;;;;;515771;28;1246;-78
2023/10/13 01:33:34;;;;;;;9.55;5.28;;;;;;;;;;515177;28;1792;-78
2023/10/13 01:33:53;;;;;;;9.30;5.30;;;;;;;;;;514836;28;879;-78
2023/10/13 01:34:09;;;;;;;8.93;5.13;;;;;;;;;;515151;28;919;-77
2023/10/13 01:34:24;;;;;;;9.63;5.00;;;;;;;;;;517997;28;894;-78
2023/10/13 01:34:40;;;;;;;11.02;5.43;;;;;;;;;;517082;28;1227;-78
2023/10/13 01:34:56;;;;;;;10.43;5.60;;;;;;;;;;515113;28;1182;-78
2023/10/13 01:35:12;;;;;;;9.30;5.72;;;;;;;;;;515850;28;839;-78
2023/10/13 01:35:36;;;;;;;8.60;5.40;;;;;;;;;;515776;28;1236;-78
2023/10/13 01:35:53;;;;;;;9.45;5.10;;;;;;;;;;515179;28;1105;-78
2023/10/13 01:36:08;;;;;;;9.43;5.07;;;;;;;;;;515631;28;1239;-78
2023/10/13 01:36:23;;;;;;;8.70;5.20;;;;;;;;;;513651;28;1200;-78
2023/10/13 01:36:40;;;;;;;9.35;5.40;;;;;;;;;;515386;28;1037;-78
2023/10/13 01:36:55;;;;;;;8.73;5.40;;;;;;;;;;517822;28;870;-78
2023/10/13 01:37:11;;;;;;;8.63;5.32;;;;;;;;;;515709;28;1364;-78
2023/10/13 01:37:26;;;;;;;9.10;5.30;;;;;;;;;;513763;28;1221;-78
2023/10/13 01:37:42;;;;;;;8.25;5.13;;;;;;;;;;514111;28;1050;-78
2023/10/13 01:37:57;;;;;;;7.67;5.10;;;;;;;;;;516010;28;835;-78
2023/10/13 01:38:15;;;;;;;7.77;5.10;;;;;;;;;;513845;28;2415;-78
2023/10/13 01:38:33;;;;;;;8.88;5.28;;;;;;;;;;515815;28;1834;-78
2023/10/13 01:38:50;;;;;;;7.65;5.25;;;;;;;;;;515730;28;1477;-78
2023/10/13 01:39:05;;;;;;;9.07;5.43;;;;;;;;;;516809;28;1349;-78
2023/10/13 01:39:26;;;;;;;9.67;5.37;;;;;;;;;;517900;28;835;-78
2023/10/13 01:39:42;;;;;;;8.00;5.40;;;;;;;;;;517633;28;986;-78
2023/10/13 01:39:57;;;;;;;7.90;5.47;;;;;;;;;;517875;28;970;-78
2023/10/13 01:40:18;;;;;;;7.13;5.10;;;;;;;;;;517840;28;847;-78
2023/10/13 01:40:34;;;;;;;7.95;5.10;;;;;;;;;;515618;28;1224;-78
2023/10/13 01:40:51;;;;;;;9.13;5.45;;;;;;;;;;515514;28;991;-78
2023/10/13 01:41:08;;;;;;;10.07;5.60;;;;;;;;;;511531;28;1930;-78
2023/10/13 01:41:24;;;;;;;9.00;5.50;;;;;;;;;;512772;28;1269;-78
2023/10/13 01:41:39;;;;;;;8.57;5.63;;;;;;;;;;511994;28;1333;-78
2023/10/13 01:41:55;;;;;;;8.47;5.50;;;;;;;;;;513843;28;1052;-77
2023/10/13 01:42:14;;;;;;;9.73;5.38;;;;;;;;;;513745;28;1284;-78
2023/10/13 01:42:29;;;;;;;8.93;5.30;;;;;;;;;;515037;28;1007;-78
2023/10/13 01:42:46;;;;;;;9.95;5.45;;;;;;;;;;515719;28;1096;-78
2023/10/13 01:43:04;;;;;;;10.65;5.68;;;;;;;;;;516928;28;1243;-78
2023/10/13 01:43:19;;;;;;;8.43;5.60;;;;;;;;;;516084;28;2354;-78
2023/10/13 01:43:35;;;;;;;8.23;5.47;;;;;;;;;;517792;28;1782;-78
2023/10/13 01:43:50;;;;;;;8.43;5.50;;;;;;;;;;517473;28;1551;-77
2023/10/13 01:44:05;;;;;;;9.07;5.50;;;;;;;;;;517759;28;1141;-78
2023/10/13 01:44:32;;;;;;;9.37;5.47;;;;;;;;;;515794;28;1206;-78
2023/10/13 01:44:48;;;;;;;9.10;5.65;;;;;;;;;;515782;28;1121;-78
2023/10/13 01:45:06;;;;;;;7.85;5.38;;;;;;;;;;517657;28;1257;-78
2023/10/13 01:45:28;;;;;;;8.20;5.40;;;;;;;;;;515802;28;1386;-78
2023/10/13 01:45:47;;;;;;;10.23;5.55;;;;;;;;;;517580;28;1220;-78
2023/10/13 01:46:03;;;;;;;9.98;5.50;;;;;;;;;;517051;28;1513;-77
2023/10/13 01:46:21;;;;;;;9.20;5.45;;;;;;;;;;517792;28;1847;-78
2023/10/13 01:46:38;;;;;;;8.10;5.15;;;;;;;;;;516749;28;874;-77
2023/10/13 01:46:53;;;;;;;7.00;5.05;;;;;;;;;;517712;28;1648;-78
2023/10/13 01:47:09;;;;;;;9.30;5.60;;;;;;;;;;515785;28;1191;-77
2023/10/13 01:47:27;;;;;;;10.20;5.55;;;;;;;;;;515868;28;1317;-78
2023/10/13 01:47:44;;;;;;;9.30;5.20;;;;;;;;;;513633;28;1490;-78
2023/10/13 01:48:01;;;;;;;9.32;5.30;;;;;;;;;;513536;28;851;-78
2023/10/13 01:48:18;;;;;;;8.88;5.40;;;;;;;;;;513562;28;2350;-77
2023/10/13 01:48:38;;;;;;;8.50;5.30;;;;;;;;;;513170;28;1719;-78
2023/10/13 01:48:54;;;;;;;8.73;5.22;;;;;;;;;;511540;29;1708;-78
2023/10/13 01:49:09;;;;;;;7.80;5.32;;;;;;;;;;513594;28;827;-78
2023/10/13 01:49:25;;;;;;;8.97;5.33;;;;;;;;;;515507;28;1435;-78
2023/10/13 01:49:46;;;;;;;9.48;5.40;;;;;;;;;;517082;28;1454;-78
2023/10/13 01:50:20;;;;;;;8.93;4.97;;;;;;;;;;517638;28;941;-77
2023/10/13 01:50:36;;;;;;;8.13;5.05;;;;;;;;;;512260;28;1099;-78
2023/10/13 01:50:59;;;;;;;10.38;5.40;;;;;;;;;;517039;28;1141;-78
2023/10/13 01:51:15;;;;;;;8.20;5.40;;;;;;;;;;517835;28;898;-78
2023/10/13 01:51:30;;;;;;;7.13;4.93;;;;;;;;;;518026;28;946;-78
2023/10/13 01:51:47;;;;;;;9.27;5.10;;;;;;;;;;517829;28;1041;-78
2023/10/13 01:52:03;;;;;;;10.88;5.30;;;;;;;;;;518064;28;2051;-78
2023/10/13 01:52:19;;;;;;;9.43;5.28;;;;;;;;;;517501;28;1203;-77
2023/10/13 01:52:34;;;;;;;8.63;5.28;;;;;;;;;;517803;28;862;-78
2023/10/13 01:52:52;;;;;;;8.67;5.20;;;;;;;;;;517645;28;1290;-78
2023/10/13 01:53:14;;;;;;;9.40;5.22;;;;;;;;;;515679;28;1340;-78
2023/10/13 01:53:29;;;;;;;8.85;5.20;;;;;;;;;;515758;28;1313;-78
2023/10/13 01:53:53;;;;;;;8.50;5.03;;;;;;;;;;514831;28;1776;-77
2023/10/13 01:54:12;;;;;;;6.88;5.00;;;;;;;;;;512097;28;1403;-78
2023/10/13 01:54:28;;;;;;;6.65;5.00;;;;;;;;;;515762;28;981;-78
2023/10/13 01:54:48;;;;;;;6.53;4.88;;;;;;;;;;515102;28;1141;-78
2023/10/13 01:55:07;;;;;;;6.30;4.70;;;;;;;;;;517458;28;961;-78
2023/10/13 01:55:22;;;;;;;9.75;5.18;;;;;;;;;;517973;28;929;-78
2023/10/13 01:55:42;;;;;;;9.57;5.30;;;;;;;;;;517605;28;1253;-78
2023/10/13 01:55:58;;;;;;;7.43;4.95;;;;;;;;;;517228;28;902;-78
2023/10/13 01:56:14;;;;;;;8.80;5.00;;;;;;;;;;517730;28;838;-78
2023/10/13 01:56:30;;;;;;;8.10;4.83;;;;;;;;;;517706;28;1271;-77
2023/10/13 01:56:46;;;;;;;7.90;5.00;;;;;;;;;;517629;28;1120;-78
2023/10/13 01:57:04;;;;;;;8.93;5.38;;;;;;;;;;517899;28;886;-78
2023/10/13 01:57:24;;;;;;;8.30;5.30;;;;;;;;;;517771;28;1169;-78
2023/10/13 01:57:41;;;;;;;9.38;5.15;;;;;;;;;;517712;28;1089;-77
2023/10/13 01:57:56;;;;;;;9.80;5.32;;;;;;;;;;517786;28;895;-77
2023/10/13 01:58:15;;;;;;;8.50;5.20;;;;;;;;;;515713;28;1205;-78
2023/10/13 01:58:30;;;;;;;9.40;5.20;;;;;;;;;;515583;28;1321;-77
2023/10/13 01:58:47;;;;;;;9.52;5.38;;;;;;;;;;515596;28;1296;-78
2023/10/13 01:59:05;;;;;;;9.02;5.35;;;;;;;;;;515714;28;906;-77
2023/10/13 01:59:22;;;;;;;8.18;5.22;;;;;;;;;;515743;28;1295;-78